• Join FlightAware (Why Join?)
  • Login
  • US Flag 
12:12AM EDT


 

Airport Tracker/Info


-or-


 

Live Flight TrackerFlight Track Log ✈ VH-VJE ✈ 15-Apr-2013 ✈ YBBN / BNE - YCCA / CCL

Flight Track Log - Related Links

Times and Time Zones

All times are in EDT time to prevent confusion due to time zone crossing. See the VH-VJE flight status page for this flight to view local times or setup timezone preferences in your user account.

Time Position Orientation Groundspeed Altitude Reporting Facility
EDT Latitude Longitude Course Direction KTS MPH feet Rate Location/Type
12:45AM -27.3870 153.1340 28° Northeast 13 15  Level FlightAware
12:46AM -27.3860 153.1350 42° Northeast 13 15 60 Level FlightAware
12:46AM -27.3850 153.1350 360° North 12 14 60 Level FlightAware
12:46AM -27.3850 153.1340 270° West 15 17 60 Level FlightAware
12:47AM -27.3840 153.1320 299° West 13 15 60 Level FlightAware
12:47AM -27.3850 153.1310 222° Southwest 14 16 120 Level FlightAware
12:47AM -27.3850 153.1300 270° West 13 15 120 Level FlightAware
12:50AM -27.3227 152.8634 285° West  Level Estimated
12:50AM -27.3850 153.1290 285° West 9 10  Level FlightAware
12:50AM -27.3840 153.1290 360° North 30 35 660 Level FlightAware
12:51AM -27.3740 153.1350 28° Northeast 121 139 500 1,080 Climbing FlightAware
12:51AM -27.3620 153.1400 20° North 146 168 1,000 1,200 Climbing FlightAware
12:52AM -27.3520 153.1400 360° North 153 176 1,300 1,200 Climbing FlightAware
12:52AM -27.3420 153.1410 North 162 186 1,600 1,260 Climbing FlightAware
12:52AM -27.3101 153.1420 North 155 178 2,500 1,440 Climbing Aus ATC (RADAR)
12:53AM -27.3060 153.1420 North 163 188 2,800 1,380 Climbing FlightAware
12:53AM -27.2920 153.1410 356° North 169 194 3,200 1,200 Climbing FlightAware
12:53AM -27.2820 153.1350 332° Northwest 174 200 3,500 1,200 Climbing FlightAware
12:54AM -27.2670 153.1230 325° Northwest 175 201 4,000 1,200 Climbing FlightAware
12:54AM -27.2468 153.1080 325° Northwest 167 192 4,500 1,380 Climbing Aus ATC (RADAR)
12:54AM -27.2460 153.1070 325° Northwest 180 207 4,700 1,380 Climbing FlightAware
12:55AM -27.2300 153.0940 324° Northwest 185 213 5,200 1,200 Climbing FlightAware
12:55AM -27.2240 153.0840 304° West 183 211 5,500 1,380 Climbing FlightAware
12:55AM -27.2210 153.0700 284° West 184 212 5,900 1,560 Climbing FlightAware
12:55AM -27.2190 153.0580 281° West 177 204 6,300 1,680 Climbing FlightAware
12:56AM -27.2160 153.0382 281° West 154 177 6,900 1,680 Climbing Aus ATC (RADAR)
12:56AM -27.2160 153.0370 281° West 178 205 7,000 1,320 Climbing FlightAware
12:56AM -27.2110 153.0160 285° West 180 207 7,700 1,200 Climbing FlightAware
12:56AM -27.2080 153.0010 283° West 189 217 7,900 780 Climbing FlightAware
12:57AM -27.2040 152.9848 283° West 162 186 8,100 960 Climbing Aus ATC (RADAR)
12:57AM -27.2030 152.9790 283° West 198 228 8,300 1,200 Climbing FlightAware
12:57AM -27.1990 152.9520 279° West 199 229 8,900 1,080 Climbing FlightAware
12:58AM -27.1940 152.9250 282° West 202 232 9,400 900 Climbing FlightAware
12:58AM -27.1910 152.9110 284° West 204 235 9,600 720 Climbing FlightAware
12:59AM -27.1850 152.8720 280° West 214 246 10,100 300 Climbing FlightAware
01:00AM -27.1780 152.8250 279° West 236 272 10,100 -120 Level FlightAware
01:00AM -27.1718 152.7874 279° West 212 244 10,000  Descending Aus ATC (RADAR)
01:00AM -27.1710 152.7820 279° West 234 269 10,100  Climbing FlightAware
01:01AM -27.1656 152.7497 279° West 208 239 10,000  Descending Aus ATC (RADAR)
01:01AM -27.1630 152.7380 279° West 232 267 10,100 60 Climbing FlightAware
01:02AM -27.1530 152.6900 283° West 232 267 10,100 -120 Level FlightAware
01:02AM -27.1468 152.6533 283° West 206 237 10,000  Descending Aus ATC (RADAR)
01:02AM -27.1460 152.6460 283° West 230 265 10,100 60 Climbing FlightAware
01:03AM -27.1380 152.6030 282° West 234 269 10,100  Level FlightAware
01:04AM -27.1280 152.5540 283° West 233 268 10,100  Level FlightAware
01:04AM -27.1210 152.5120 281° West 233 268 10,100  Level FlightAware
01:05AM -27.1110 152.4630 283° West 233 268 10,100 -120 Level FlightAware
01:06AM -27.1057 152.4328 283° West 208 239 10,000  Descending Aus ATC (RADAR)
01:06AM -27.1060 152.4250 283° West 233 268 10,100  Climbing FlightAware
01:06AM -27.1002 152.3797 283° West 202 232 10,000  Descending Aus ATC (RADAR)
01:07AM -27.1010 152.3730 283° West 232 267 10,100  Climbing FlightAware
01:07AM -27.1004 152.3299 283° West 211 243 10,000  Descending Aus ATC (RADAR)
01:07AM -27.1000 152.3330 283° West 237 273 10,100  Climbing FlightAware
01:08AM -27.0940 152.2919 283° West 210 242 10,000  Descending Aus ATC (RADAR)
01:08AM -27.0910 152.2850 283° West 234 269 10,100 60 Climbing FlightAware
01:09AM -27.0780 152.2470 291° West 234 269 10,100 -120 Level FlightAware
01:09AM -27.0670 152.2070 287° West 231 266 10,000  Descending FlightAware
01:10AM -27.0580 152.1570 281° West 229 264 10,100  Climbing FlightAware
01:10AM -27.0525 152.1243 281° West 207 238 10,000  Descending Aus ATC (RADAR)
01:11AM -27.0510 152.1060 281° West 234 269 10,100  Climbing FlightAware
01:11AM -27.0460 152.0811 281° West 209 241 10,000  Descending Aus ATC (RADAR)
01:11AM -27.0440 152.0630 281° West 233 268 10,100  Climbing FlightAware
01:12AM -27.0363 152.0215 281° West 208 239 10,000  Descending Aus ATC (RADAR)
01:12AM -27.0350 152.0160 281° West 233 268 10,100 60 Climbing FlightAware
01:13AM -27.0280 151.9770 281° West 234 269 10,100 -120 Level FlightAware
01:13AM -27.0180 151.9280 283° West 10,100 -240 Level FlightAware
01:14AM -27.0128 151.9005 283° West 205 236 9,900  Descending Aus ATC (RADAR)
01:14AM -27.0070 151.8710 282° West 232 267 10,100 120 Climbing FlightAware
01:14AM -27.0060 151.8635 282° West 204 235 10,000 -360 Descending Aus ATC (RADAR)
01:15AM -26.9950 151.8160 284° West 10,000 -300 Level FlightAware
01:16AM -26.9840 151.7626 284° West 212 244 9,600 -480 Descending Aus ATC (RADAR)
01:17AM -26.9734 151.6934 280° West 205 236 9,200 -420 Descending Aus ATC (RADAR)
01:17AM -26.9706 151.6775 281° West 204 235 9,100 -480 Descending Aus ATC (RADAR)
01:18AM -26.9643 151.6399 281° West 208 239 8,800 -600 Descending Aus ATC (RADAR)
01:19AM -26.9541 151.5804 281° West 212 244 8,200 -480 Descending Aus ATC (RADAR)
01:20AM -26.9450 151.5365 283° West 217 250 8,100 -360 Descending Aus ATC (RADAR)
01:21AM -26.9317 151.4667 282° West 209 241 7,600 -420 Descending Aus ATC (RADAR)
01:21AM -26.9260 151.4288 280° West 209 241 7,500 -360 Descending Aus ATC (RADAR)
01:23AM -26.9115 151.3373 280° West 204 235 6,900 -360 Descending Aus ATC (RADAR)
01:23AM -26.9097 151.3211 277° West 206 237 6,900 -420 Level Aus ATC (RADAR)
01:24AM -26.8942 151.2521 284° West 210 242 6,400 -480 Descending Aus ATC (RADAR)
01:24AM -26.8896 151.2364 288° West 211 243 6,300 -360 Descending Aus ATC (RADAR)
01:25AM -26.8818 151.2007 284° West 202 232 6,100 -480 Descending Aus ATC (RADAR)
01:26AM -26.8736 151.1485 280° West 200 230 5,700 -480 Descending Aus ATC (RADAR)
01:26AM -26.8674 151.1125 281° West 202 232 5,500 -360 Descending Aus ATC (RADAR)
01:28AM -26.8467 151.0255 285° West 202 232 5,000 -420 Descending Aus ATC (RADAR)
01:28AM -26.8431 151.0106 285° West 200 230 4,800 -600 Descending Aus ATC (RADAR)
01:28AM -26.8349 150.9749 285° West 202 232 4,500 -420 Descending Aus ATC (RADAR)
01:29AM -26.8231 150.9129 282° West 201 231 4,200 -360 Descending Aus ATC (RADAR)
01:30AM -26.8195 150.8760 276° West 200 230 4,000 -480 Descending Aus ATC (RADAR)
01:31AM -26.8127 150.8174 277° West 205 236 3,500 -600 Descending Aus ATC (RADAR)
01:32AM -26.8030 150.7659 282° West 204 235 3,000 -600 Descending Aus ATC (RADAR)
01:33AM -26.7926 150.7155 283° West 198 228 2,500 -360 Descending Aus ATC (RADAR)
01:33AM -26.8053 150.6872 243° Southwest 186 214 2,500 -420 Level Aus ATC (RADAR)
01:34AM -26.8196 150.6482 248° West 153 176 1,900 -660 Descending Aus ATC (RADAR)
01:36AM -26.7750 150.6167 328° Northwest  Level Estimated
01:43AM -26.7750 150.6167 270° West  Level Estimated
01:44AM -26.7750 150.6167 270° West  Level Estimated
01:45AM -26.7750 150.6167 270° West  Level Estimated
01:46AM -26.7750 150.6167 270° West  Level Estimated
01:47AM -26.7750 150.6167 270° West  Level Estimated
01:48AM -26.7750 150.6167 270° West  Level Estimated
01:49AM -26.7750 150.6167 270° West  Level Estimated
01:50AM -26.7750 150.6167 270° West  Level Estimated
01:51AM -26.7750 150.6167 270° West  Level Estimated
01:52AM -26.7750 150.6167 270° West  Level Estimated
01:53AM -26.7750 150.6167 270° West  Level Estimated